Ashland, OR

3:50 PM PDT on August 28, 2016 (GMT -0700)
Tolman Creek Mountain | | Change Station

Elev 2884 ft 42.16 °N, 122.67 °W | Updated 8 minutes ago

Clear
Clear
90.7 °F
Feels Like 87 °F
N
4.7
Wind Variable Wind from West

Today
High -- | Low -- °F
--% Chance of Precip.
Yesterday
High -- | Low -- °F
Precip. -- in
Pressure 29.93 in
Visibility 10.0 miles
Clouds Clear
Heat Index 87 °F
Dew Point 47 °F
Humidity 22%
Rainfall 0.00 in
Snow Depth Not available.
6:32 AM 7:49 PM
Waning Crescent, 13% visible
METAR KMFR 282153Z 34008KT 10SM CLR 35/06 A2997 RMK AO2 SLP134 FU ALQDS T03500056
Pressure 29.93 in
Visibility 10.0 miles
Clouds Clear
Heat Index 87 °F
Dew Point 47 °F
Humidity 22%
Rainfall 0.00 in
Snow Depth Not available.
6:32 AM 7:49 PM
Waning Crescent, 13% visible
METAR KMFR 282153Z 34008KT 10SM CLR 35/06 A2997 RMK AO2 SLP134 FU ALQDS T03500056

10-Day Weather Forecast

Almanac

Astronomy

Aug. 28, 2016 Rise Set
Actual Time
Civil Twilight
Nautical Twilight
Astronomical Twilight
Moon
Length of Visible Light
Length of Day
Tomorrow will be .
, % of the Moon is Illuminated

Today's Extremes

State Highs State Lows

Community

WunderPhotos

Upload Photos

1,935,705 photos uploaded!

WunderBlog® & News

Nearby

Air Quality

  Air Quality AQ Index Pollutant
Not available.

Snow Depth

Station Depth Elevation

Earthquake Activity

City Distance Mag. Time & Date
Minimum magnitude displayed is 2.5.

Coastal Water Temperatures

Place Temperature

Stations

Nearby Weather Stations

Station Location Temp. Windchill Dew Point Humidity Wind Precip. Elev Updated Type
                   

Watches & Warnings

There are currently no watches in effect.